Time,TemperatureF,DewpointF,PressureIn,WindDirection,WindDirectionDegrees,WindSpeedMPH,WindSpeedGustMPH,Humidity,HourlyPrecipIn,Conditions,Clouds,dailyrainin,SoftwareType,DateUTC
2013-08-26 00:04:00,74.8,66.0,29.89,NE,44,9.0,-999.0,75,-99.99,,,0.00,weatherlink.com 1.10,2013-08-25 21:04:00,
2013-08-26 00:19:00,74.8,66.0,29.89,NE,38,12.0,-999.0,75,-99.99,,,0.00,weatherlink.com 1.10,2013-08-25 21:19:00,
2013-08-26 00:34:00,74.8,66.0,29.89,NNE,26,6.0,-999.0,75,-99.99,,,0.00,weatherlink.com 1.10,2013-08-25 21:34:00,
2013-08-26 00:49:00,74.7,66.0,29.89,NE,40,6.0,-999.0,75,-99.99,,,0.00,weatherlink.com 1.10,2013-08-25 21:49:00,
2013-08-26 01:04:00,74.5,67.0,29.89,NE,46,4.0,-999.0,76,-99.99,,,0.00,weatherlink.com 1.10,2013-08-25 22:04:00,
2013-08-26 01:19:00,74.2,67.0,29.89,NE,42,5.0,-999.0,77,-99.99,,,0.00,weatherlink.com 1.10,2013-08-25 22:19:00,
2013-08-26 01:34:00,74.1,67.0,29.88,NE,40,4.0,-999.0,78,-99.99,,,0.00,weatherlink.com 1.10,2013-08-25 22:34:00,
2013-08-26 01:49:00,74.1,67.0,29.88,NE,40,5.0,-999.0,78,-99.99,,,0.00,weatherlink.com 1.10,2013-08-25 22:49:00,
2013-08-26 02:04:00,73.9,67.0,29.88,NNE,22,2.0,-999.0,79,-99.99,,,0.00,weatherlink.com 1.10,2013-08-25 23:04:00,
2013-08-26 02:19:00,73.4,68.0,29.89,NNE,30,6.0,-999.0,82,-99.99,,,0.00,weatherlink.com 1.10,2013-08-25 23:19:00,
2013-08-26 02:34:00,73.3,68.0,29.88,NNE,26,5.0,-999.0,83,-99.99,,,0.00,weatherlink.com 1.10,2013-08-25 23:34:00,
2013-08-26 02:49:00,73.4,68.0,29.88,NNE,32,8.0,-999.0,83,-99.99,,,0.00,weatherlink.com 1.10,2013-08-25 23:49:00,
2013-08-26 03:04:00,73.6,68.0,29.88,North,5,7.0,-999.0,83,-99.99,,,0.00,weatherlink.com 1.10,2013-08-26 00:04:00,
2013-08-26 03:19:00,73.1,68.0,29.88,NNE,28,8.0,-999.0,84,-99.99,,,0.00,weatherlink.com 1.10,2013-08-26 00:19:00,
2013-08-26 03:34:00,73.2,68.0,29.88,NE,46,14.0,-999.0,84,-99.99,,,0.00,weatherlink.com 1.10,2013-08-26 00:34:00,
2013-08-26 03:49:00,73.4,68.0,29.88,NNE,26,9.0,-999.0,84,-99.99,,,0.00,weatherlink.com 1.10,2013-08-26 00:49:00,
2013-08-26 04:04:00,73.6,69.0,29.88,NNE,26,10.0,-999.0,84,-99.99,,,0.00,weatherlink.com 1.10,2013-08-26 01:04:00,
2013-08-26 04:19:00,73.5,68.0,29.88,NE,36,8.0,-999.0,84,-99.99,,,0.00,weatherlink.com 1.10,2013-08-26 01:19:00,
2013-08-26 04:34:00,73.4,69.0,29.88,NNE,14,8.0,-999.0,85,-99.99,,,0.00,weatherlink.com 1.10,2013-08-26 01:34:00,
2013-08-26 04:49:00,73.2,69.0,29.88,NNE,18,8.0,-999.0,85,-99.99,,,0.00,weatherlink.com 1.10,2013-08-26 01:49:00,
2013-08-26 05:04:00,72.9,68.0,29.88,NNE,17,4.0,-999.0,85,-99.99,,,0.00,weatherlink.com 1.10,2013-08-26 02:04:00,
2013-08-26 05:19:00,73.0,69.0,29.89,North,9,5.0,-999.0,86,-99.99,,,0.00,weatherlink.com 1.10,2013-08-26 02:19:00,
2013-08-26 05:35:00,73.0,69.0,29.89,NNE,17,5.0,-999.0,87,-99.99,,,0.00,weatherlink.com 1.10,2013-08-26 02:35:00,
2013-08-26 05:50:00,73.0,69.0,29.89,NNE,18,5.0,-999.0,87,-99.99,,,0.00,weatherlink.com 1.10,2013-08-26 02:50:00,
2013-08-26 06:05:00,72.8,69.0,29.89,NNE,13,8.0,-999.0,88,-99.99,,,0.00,weatherlink.com 1.10,2013-08-26 03:05:00,
2013-08-26 06:20:00,72.9,69.0,29.89,NE,34,6.0,-999.0,88,-99.99,,,0.00,weatherlink.com 1.10,2013-08-26 03:20:00,
2013-08-26 06:35:00,72.7,69.0,29.89,NNE,22,5.0,-999.0,88,-99.99,,,0.00,weatherlink.com 1.10,2013-08-26 03:35:00,
2013-08-26 06:50:00,72.7,69.0,29.89,North,9,6.0,-999.0,89,-99.99,,,0.00,weatherlink.com 1.10,2013-08-26 03:50:00,
2013-08-26 07:05:00,73.0,70.0,29.90,NNE,15,5.0,-999.0,89,-99.99,,,0.00,weatherlink.com 1.10,2013-08-26 04:05:00,
2013-08-26 07:20:00,73.4,70.0,29.90,NNE,12,3.0,-999.0,89,-99.99,,,0.00,weatherlink.com 1.10,2013-08-26 04:20:00,
2013-08-26 07:35:00,73.9,70.0,29.90,North,11,7.0,-999.0,88,-99.99,,,0.00,weatherlink.com 1.10,2013-08-26 04:35:00,
2013-08-26 07:50:00,74.6,71.0,29.90,NNE,32,4.0,-999.0,87,-99.99,,,0.00,weatherlink.com 1.10,2013-08-26 04:50:00,
2013-08-26 08:05:00,75.0,70.0,29.90,NNE,31,10.0,-999.0,85,-99.99,,,0.00,weatherlink.com 1.10,2013-08-26 05:05:00,
2013-08-26 08:20:00,75.4,70.0,29.90,NE,34,5.0,-999.0,84,-99.99,,,0.00,weatherlink.com 1.10,2013-08-26 05:20:00,
2013-08-26 08:35:00,76.2,71.0,29.91,North,10,2.0,-999.0,83,-99.99,,,0.00,weatherlink.com 1.10,2013-08-26 05:35:00,
2013-08-26 08:50:00,76.5,71.0,29.91,ENE,58,7.0,-999.0,82,-99.99,,,0.00,weatherlink.com 1.10,2013-08-26 05:50:00,
2013-08-26 09:05:00,77.0,70.0,29.91,NNE,32,8.0,-999.0,80,-99.99,,,0.00,weatherlink.com 1.10,2013-08-26 06:05:00,
2013-08-26 09:20:00,77.6,70.0,29.91,NNW,342,9.0,-999.0,76,-99.99,,,0.00,weatherlink.com 1.10,2013-08-26 06:20:00,
2013-08-26 09:35:00,78.3,69.0,29.92,North,360,4.0,-999.0,74,-99.99,,,0.00,weatherlink.com 1.10,2013-08-26 06:35:00,
2013-08-26 09:50:00,79.1,69.0,29.92,NNE,28,9.0,-999.0,72,-99.99,,,0.00,weatherlink.com 1.10,2013-08-26 06:50:00,
2013-08-26 10:04:00,79.7,69.0,29.92,North,360,4.0,-999.0,70,-99.99,,,0.00,weatherlink.com 1.10,2013-08-26 07:04:00,
2013-08-26 10:19:00,80.3,68.0,29.92,NE,34,6.0,-999.0,66,-99.99,,,0.00,weatherlink.com 1.10,2013-08-26 07:19:00,
2013-08-26 10:35:00,81.2,67.0,29.92,North,355,6.0,-999.0,63,-99.99,,,0.00,weatherlink.com 1.10,2013-08-26 07:35:00,
2013-08-26 10:49:00,81.3,67.0,29.92,NNE,27,4.0,-999.0,63,-99.99,,,0.00,weatherlink.com 1.10,2013-08-26 07:49:00,
2013-08-26 11:04:00,82.2,68.0,29.92,NE,34,7.0,-999.0,62,-99.99,,,0.00,weatherlink.com 1.10,2013-08-26 08:04:00,
2013-08-26 11:19:00,82.6,67.0,29.92,North,11,8.0,-999.0,59,-99.99,,,0.00,weatherlink.com 1.10,2013-08-26 08:19:00,
2013-08-26 11:34:00,83.1,67.0,29.91,NNE,20,3.0,-999.0,58,-99.99,,,0.00,weatherlink.com 1.10,2013-08-26 08:34:00,
2013-08-26 11:50:00,83.3,65.0,29.91,NE,37,7.0,-999.0,55,-99.99,,,0.00,weatherlink.com 1.10,2013-08-26 08:50:00,
2013-08-26 12:05:00,84.7,65.0,29.91,North,360,9.0,-999.0,52,-99.99,,,0.00,weatherlink.com 1.10,2013-08-26 09:05:00,
2013-08-26 12:20:00,85.1,66.0,29.91,NE,34,8.0,-999.0,53,-99.99,,,0.00,weatherlink.com 1.10,2013-08-26 09:20:00,
2013-08-26 12:35:00,85.4,64.0,29.91,NNW,348,6.0,-999.0,49,-99.99,,,0.00,weatherlink.com 1.10,2013-08-26 09:35:00,
2013-08-26 12:50:00,85.7,64.0,29.91,North,9,6.0,-999.0,48,-99.99,,,0.00,weatherlink.com 1.10,2013-08-26 09:50:00,
2013-08-26 13:05:00,85.6,65.0,29.91,NE,34,7.0,-999.0,50,-99.99,,,0.00,weatherlink.com 1.10,2013-08-26 10:05:00,
2013-08-26 13:20:00,86.2,64.0,29.91,North,360,10.0,-999.0,47,-99.99,,,0.00,weatherlink.com 1.10,2013-08-26 10:20:00,
2013-08-26 13:35:00,86.2,63.0,29.90,NE,37,3.0,-999.0,46,-99.99,,,0.00,weatherlink.com 1.10,2013-08-26 10:35:00,
2013-08-26 13:50:00,86.6,63.0,29.90,North,11,4.0,-999.0,45,-99.99,,,0.00,weatherlink.com 1.10,2013-08-26 10:50:00,
2013-08-26 14:05:00,86.6,62.0,29.90,NNE,26,4.0,-999.0,44,-99.99,,,0.00,weatherlink.com 1.10,2013-08-26 11:05:00,
2013-08-26 14:20:00,87.1,62.0,29.89,NW,320,10.0,-999.0,43,-99.99,,,0.00,weatherlink.com 1.10,2013-08-26 11:20:00,
2013-08-26 14:35:00,87.0,62.0,29.90,North,351,6.0,-999.0,43,-99.99,,,0.00,weatherlink.com 1.10,2013-08-26 11:35:00,
2013-08-26 14:50:00,87.4,62.0,29.90,North,349,11.0,-999.0,42,-99.99,,,0.00,weatherlink.com 1.10,2013-08-26 11:50:00,
2013-08-26 15:05:00,86.6,63.0,29.90,NW,306,9.0,-999.0,45,-99.99,,,0.00,weatherlink.com 1.10,2013-08-26 12:05:00,
2013-08-26 15:20:00,86.2,62.0,29.90,NNW,343,10.0,-999.0,44,-99.99,,,0.00,weatherlink.com 1.10,2013-08-26 12:20:00,
2013-08-26 15:35:00,86.3,62.0,29.90,NE,40,8.0,-999.0,44,-99.99,,,0.00,weatherlink.com 1.10,2013-08-26 12:35:00,
2013-08-26 15:50:00,86.0,61.0,29.90,NW,317,11.0,-999.0,43,-99.99,,,0.00,weatherlink.com 1.10,2013-08-26 12:50:00,
2013-08-26 17:34:00,84.2,62.0,29.90,North,355,6.0,-999.0,47,-99.99,,,0.00,weatherlink.com 1.10,2013-08-26 14:34:00,
2013-08-26 17:50:00,83.5,63.0,29.89,NE,47,15.0,-999.0,50,-99.99,,,0.00,weatherlink.com 1.10,2013-08-26 14:50:00,
2013-08-26 18:06:00,82.8,64.0,29.89,North,360,12.0,-999.0,54,-99.99,,,0.00,weatherlink.com 1.10,2013-08-26 15:06:00,
2013-08-26 18:20:00,82.5,65.0,29.89,NNE,31,12.0,-999.0,55,-99.99,,,0.00,weatherlink.com 1.10,2013-08-26 15:20:00,
2013-08-26 18:35:00,82.0,63.0,29.89,NNW,344,11.0,-999.0,53,-99.99,,,0.00,weatherlink.com 1.10,2013-08-26 15:35:00,
2013-08-26 18:50:00,81.6,63.0,29.89,NE,35,10.0,-999.0,54,-99.99,,,0.00,weatherlink.com 1.10,2013-08-26 15:50:00,
2013-08-26 19:05:00,81.3,62.0,29.89,NNE,30,10.0,-999.0,53,-99.99,,,0.00,weatherlink.com 1.10,2013-08-26 16:05:00,
2013-08-26 19:20:00,80.6,62.0,29.89,North,360,13.0,-999.0,53,-99.99,,,0.00,weatherlink.com 1.10,2013-08-26 16:20:00,
2013-08-26 19:35:00,79.9,62.0,29.89,NE,44,7.0,-999.0,55,-99.99,,,0.00,weatherlink.com 1.10,2013-08-26 16:35:00,
2013-08-26 19:50:00,79.3,63.0,29.89,NE,46,10.0,-999.0,57,-99.99,,,0.00,weatherlink.com 1.10,2013-08-26 16:50:00,
2013-08-26 20:05:00,78.7,64.0,29.89,NE,55,15.0,-999.0,60,-99.99,,,0.00,weatherlink.com 1.10,2013-08-26 17:05:00,
2013-08-26 20:21:00,78.3,65.0,29.89,NE,53,11.0,-999.0,63,-99.99,,,0.00,weatherlink.com 1.10,2013-08-26 17:21:00,
2013-08-26 20:36:00,77.6,67.0,29.89,NE,53,14.0,-999.0,69,-99.99,,,0.00,weatherlink.com 1.10,2013-08-26 17:36:00,
2013-08-26 20:51:00,77.1,68.0,29.89,NNE,27,14.0,-999.0,73,-99.99,,,0.00,weatherlink.com 1.10,2013-08-26 17:51:00,
2013-08-26 21:06:00,76.7,69.0,29.89,NNE,24,10.0,-999.0,77,-99.99,,,0.00,weatherlink.com 1.10,2013-08-26 18:06:00,
2013-08-26 21:21:00,76.5,70.0,29.89,NE,42,9.0,-999.0,80,-99.99,,,0.00,weatherlink.com 1.10,2013-08-26 18:21:00,
2013-08-26 21:36:00,76.3,70.0,29.90,ENE,59,13.0,-999.0,81,-99.99,,,0.00,weatherlink.com 1.10,2013-08-26 18:36:00,
2013-08-26 21:51:00,76.0,71.0,29.90,NE,37,13.0,-999.0,83,-99.99,,,0.00,weatherlink.com 1.10,2013-08-26 18:51:00,
2013-08-26 22:06:00,75.9,70.0,29.90,NNE,29,11.0,-999.0,83,-99.99,,,0.00,weatherlink.com 1.10,2013-08-26 19:06:00,
2013-08-26 22:21:00,75.9,70.0,29.90,NE,42,4.0,-999.0,83,-99.99,,,0.00,weatherlink.com 1.10,2013-08-26 19:21:00,
2013-08-26 22:36:00,75.8,70.0,29.91,NE,40,2.0,-999.0,83,-99.99,,,0.00,weatherlink.com 1.10,2013-08-26 19:36:00,
2013-08-26 22:51:00,75.5,70.0,29.91,NNE,27,6.0,-999.0,84,-99.99,,,0.00,weatherlink.com 1.10,2013-08-26 19:51:00,
2013-08-26 23:06:00,75.3,71.0,29.91,NNE,32,0.0,-999.0,85,-99.99,,,0.00,weatherlink.com 1.10,2013-08-26 20:06:00,
2013-08-26 23:21:00,75.0,70.0,29.91,NNE,32,0.0,-999.0,85,-99.99,,,0.00,weatherlink.com 1.10,2013-08-26 20:21:00,
2013-08-26 23:36:00,74.8,70.0,29.91,NNW,335,0.0,-999.0,86,-99.99,,,0.00,weatherlink.com 1.10,2013-08-26 20:36:00,
2013-08-26 23:51:00,74.5,70.0,29.91,NNW,335,0.0,-999.0,86,-99.99,,,0.00,weatherlink.com 1.10,2013-08-26 20:51:00,